Terminal Aerodrome Forecast
Issued by NWS

Home | Current Version | Previous Version | Text Only | Print | Product List | Glossary On
Versions: 1 2 3 4 5 6 7 8 9 10 11 12 13 14
000
FTUS45 KREV 201100
TAFCXP
TAF
KCXP 201120Z 2012/2112 VRB04KT P6SM SCT200
     FM201800 08009KT P6SM FEW200
     FM210300 VRB03KT P6SM SKC=

USA.gov is the U.S. government's official web portal to all federal, state and local government web resources and services.